Time;durP1;ratioP1;P1;durP2;ratioP2;P2;SDS_P1;SDS_P2;PMS_P1;PMS_P2;Temp;Humidity;BMP_temperature;BMP_pressure;BME280_temperature;BME280_humidity;BME280_pressure;Samples;Min_cycle;Max_cycle;Signal;HPM_P1;HPM_P2
2022/01/23 00:00:21;;;;;;;13.73;7.50;;;64.00;2201.60;;;;;;5074347;28;20131;-79
2022/01/23 00:02:49;;;;;;;15.77;8.00;;;64.00;2201.60;;;;;;5073848;28;20101;-79
2022/01/23 00:05:18;;;;;;;17.50;7.40;;;64.00;2201.60;;;;;;5073868;28;20479;-79
2022/01/23 00:07:45;;;;;;;14.13;7.37;;;64.00;2201.60;;;;;;5073716;28;20028;-78
2022/01/23 00:10:12;;;;;;;18.77;7.97;;;64.00;2201.60;;;;;;5073933;28;20060;-78
2022/01/23 00:12:50;;;;;;;14.53;8.10;;;64.00;2201.60;;;;;;5073891;28;20052;-77
2022/01/23 00:18:00;;;;;;;;;;;64.10;2201.60;;;;;;5074489;28;20040;-79
2022/01/23 00:20:25;;;;;;;17.43;8.80;;;64.00;2201.60;;;;;;5073513;28;20268;-74
2022/01/23 00:22:56;;;;;;;21.87;10.93;;;64.00;2201.60;;;;;;5073520;28;20024;-73
2022/01/23 00:30:53;;;;;;;24.70;12.23;;;64.00;2201.60;;;;;;5073344;28;20063;-76
2022/01/23 00:33:20;;;;;;;25.27;12.10;;;64.00;2201.60;;;;;;5073514;28;20032;-76
2022/01/23 00:35:47;;;;;;;25.20;12.03;;;64.00;2201.60;;;;;;5072976;28;20035;-79
2022/01/23 00:38:13;;;;;;;19.37;9.70;;;64.00;2201.60;;;;;;5073193;28;20024;-80
2022/01/23 00:40:41;;;;;;;13.47;7.80;;;64.00;2201.60;;;;;;5071909;28;20021;-80
2022/01/23 00:43:42;;;;;;;19.67;8.60;;;64.10;2201.60;;;;;;5073177;28;20025;-80
2022/01/23 00:46:21;;;;;;;23.33;10.63;;;64.10;2201.60;;;;;;5071802;28;20075;-81
2022/01/23 00:51:22;;;;;;;22.23;11.07;;;64.20;2201.60;;;;;;5073073;28;20013;-79
2022/01/23 00:53:48;;;;;;;24.57;9.77;;;64.20;2201.60;;;;;;5072399;28;20025;-78
2022/01/23 00:56:14;;;;;;;16.20;7.70;;;64.20;2201.60;;;;;;5073094;28;20048;-77
2022/01/23 00:58:40;;;;;;;20.20;9.67;;;64.30;2201.60;;;;;;5072657;28;20020;-74
2022/01/23 01:01:05;;;;;;;30.23;13.07;;;64.40;2201.60;;;;;;5072752;28;20473;-77
2022/01/23 01:03:31;;;;;;;48.40;16.07;;;64.50;2201.60;;;;;;5072859;28;20384;-73
2022/01/23 01:05:57;;;;;;;31.40;12.87;;;64.60;2201.60;;;;;;5072945;28;20013;-81
2022/01/23 01:08:23;;;;;;;25.60;10.73;;;64.70;2201.60;;;;;;5073127;28;20085;-81
2022/01/23 01:14:08;;;;;;;23.90;9.25;;;64.60;2201.60;;;;;;5072656;28;20127;-75
2022/01/23 01:30:24;;;;;;;18.08;7.40;;;64.70;2201.60;;;;;;5073174;28;19950;-77
2022/01/23 01:33:04;;;;;;;16.10;7.33;;;64.70;2201.60;;;;;;5072395;28;20108;-77
2022/01/23 01:35:37;;;;;;;16.07;8.60;;;64.60;2201.60;;;;;;5071218;28;20197;-79
2022/01/23 01:38:03;;;;;;;19.83;9.07;;;64.60;2201.60;;;;;;5071128;28;20436;-79
2022/01/23 01:40:29;;;;;;;30.93;14.23;;;64.60;2201.60;;;;;;5072822;28;20032;-72
2022/01/23 01:42:55;;;;;;;44.70;17.97;;;64.60;2201.60;;;;;;5073277;28;20021;-71
2022/01/23 01:45:23;;;;;;;54.97;20.03;;;64.60;2201.60;;;;;;5071937;28;20103;-70
2022/01/23 01:47:59;;;;;;;29.50;12.17;;;64.60;2201.60;;;;;;5072881;28;20027;-75
2022/01/23 01:50:25;;;;;;;24.53;9.67;;;64.50;2201.60;;;;;;5073330;28;20093;-70
2022/01/23 01:52:51;;;;;;;20.37;8.10;;;64.60;2201.60;;;;;;5073600;28;20512;-71
2022/01/23 01:55:25;;;;;;;22.53;10.60;;;64.70;2201.60;;;;;;5071914;28;20108;-76
2022/01/23 01:58:00;;;;;;;22.83;9.67;;;64.70;2201.60;;;;;;5073467;28;20044;-69
2022/01/23 02:08:24;;;;;;;15.20;6.33;;;64.80;2201.60;;;;;;5077651;28;20150;-73
2022/01/23 02:10:56;;;;;;;15.40;6.80;;;64.90;2201.60;;;;;;5077392;28;20025;-76
2022/01/23 02:13:45;;;;;;;16.30;8.70;;;64.90;2201.60;;;;;;5076777;28;20035;-72
2022/01/23 02:56:58;;;;;;;14.00;7.47;;;89.90;2176.00;;;;;;5076516;28;20550;-73
2022/01/23 02:59:30;;;;;;;13.50;6.83;;;89.80;2176.00;;;;;;5076121;28;20024;-75
2022/01/23 03:04:29;;;;;;;13.53;6.57;;;89.80;2176.00;;;;;;5076464;28;20024;-73
2022/01/23 03:14:48;;;;;;;13.75;7.13;;;89.80;2176.00;;;;;;5075786;28;20055;-73
2022/01/23 03:33:28;;;;;;;19.37;9.07;;;89.90;2176.00;;;;;;5064341;28;20607;-80
2022/01/23 03:35:54;;;;;;;21.73;10.63;;;89.90;2176.00;;;;;;5075643;28;20116;-70
2022/01/23 03:38:19;;;;;;;24.67;11.83;;;89.80;2176.00;;;;;;5075512;28;20385;-70
2022/01/23 03:40:45;;;;;;;20.33;9.67;;;89.80;2176.00;;;;;;5075379;28;20032;-73
2022/01/23 03:43:14;;;;;;;12.80;7.37;;;89.80;2176.00;;;;;;5075358;28;20063;-72
2022/01/23 03:50:41;;;;;;;12.73;6.00;;;89.70;2176.00;;;;;;5075304;28;20028;-75
2022/01/23 03:53:08;;;;;;;13.17;7.07;;;89.60;2201.60;;;;;;5075160;28;20101;-76
2022/01/23 03:55:34;;;;;;;14.07;6.00;;;89.60;2201.60;;;;;;5075033;28;20103;-73
2022/01/23 03:58:00;;;;;;;11.63;5.63;;;89.60;2201.60;;;;;;5074990;28;20031;-75
2022/01/23 04:00:26;;;;;;;10.40;5.63;;;64.90;2201.60;;;;;;5073695;28;20048;-75
2022/01/23 04:02:52;;;;;;;12.20;6.50;;;64.90;2201.60;;;;;;5074941;28;20099;-72
2022/01/23 04:05:18;;;;;;;13.07;5.70;;;64.90;2201.60;;;;;;5074878;28;20425;-75
2022/01/23 04:07:45;;;;;;;11.53;5.67;;;64.90;2201.60;;;;;;5074985;28;20017;-74
2022/01/23 04:10:14;;;;;;;11.20;5.53;;;64.80;2201.60;;;;;;5074778;28;20238;-70
2022/01/23 04:13:44;;;;;;;15.80;6.17;;;64.80;2201.60;;;;;;5074689;28;20107;-76
2022/01/23 04:15:46;;;;;;;15.13;7.00;;;64.80;2201.60;;;;;;5061124;28;20123;-76
2022/01/23 04:31:45;;;;;;;13.33;6.13;;;64.70;2201.60;;;;;;5074758;28;20035;-74
2022/01/23 04:32:22;;;;;;;13.53;5.93;;;64.80;2201.60;;;;;;5074710;28;20050;-76
2022/01/23 04:35:18;;;;;;;9.43;5.20;;;64.70;2201.60;;;;;;5074811;28;20366;-71
2022/01/23 04:46:24;;;;;;;13.80;7.40;;;64.70;2201.60;;;;;;5074409;28;20086;-78
2022/01/23 04:59:48;;;;;;;31.02;12.27;;;64.70;2201.60;;;;;;5074514;28;19949;-75
2022/01/23 05:04:50;;;;;;;17.40;8.50;;;64.70;2201.60;;;;;;5073868;28;20016;-75
2022/01/23 05:07:17;;;;;;;15.70;7.63;;;64.70;2201.60;;;;;;5073766;28;20025;-71
2022/01/23 05:09:43;;;;;;;38.90;13.87;;;64.80;2201.60;;;;;;5073728;28;20376;-76
2022/01/23 05:12:12;;;;;;;19.63;8.33;;;64.80;2201.60;;;;;;5073741;28;20029;-77
2022/01/23 05:14:43;;;;;;;17.30;7.83;;;64.80;2201.60;;;;;;5073455;28;20052;-76
2022/01/23 05:17:12;;;;;;;12.40;5.43;;;64.80;2201.60;;;;;;5073771;28;20115;-73
2022/01/23 05:19:40;;;;;;;10.17;5.13;;;64.80;2201.60;;;;;;5073600;28;20028;-76
2022/01/23 05:27:37;;;;;;;14.27;6.10;;;64.80;2201.60;;;;;;5073612;28;20020;-74
2022/01/23 05:30:04;;;;;;;12.67;6.50;;;64.80;2201.60;;;;;;5073836;28;20100;-72
2022/01/23 05:32:40;;;;;;;13.47;6.93;;;64.80;2201.60;;;;;;5073815;28;20421;-75
2022/01/23 05:35:08;;;;;;;13.73;6.83;;;64.80;2201.60;;;;;;5072230;28;20033;-74
2022/01/23 05:37:35;;;;;;;19.70;9.10;;;64.80;2201.60;;;;;;5073288;28;20089;-70
2022/01/23 05:40:02;;;;;;;19.77;7.87;;;64.90;2201.60;;;;;;5072840;28;20036;-72
2022/01/23 05:42:27;;;;;;;15.33;6.83;;;64.90;2201.60;;;;;;5073512;28;20028;-70
2022/01/23 05:44:53;;;;;;;13.80;8.00;;;64.90;2201.60;;;;;;5073327;28;20024;-70
2022/01/23 05:47:19;;;;;;;15.60;8.27;;;64.90;2201.60;;;;;;5072092;28;20032;-71
2022/01/23 05:49:45;;;;;;;20.03;10.07;;;64.90;2201.60;;;;;;5072001;28;20051;-79
2022/01/23 05:52:11;;;;;;;23.50;10.30;;;89.60;2201.60;;;;;;5073350;28;20043;-76
2022/01/23 05:54:37;;;;;;;24.20;12.07;;;89.60;2201.60;;;;;;5073231;28;20017;-75
2022/01/23 05:57:04;;;;;;;25.50;11.73;;;89.70;2176.00;;;;;;5073742;28;20036;-74
2022/01/23 05:59:29;;;;;;;31.17;13.67;;;89.80;2176.00;;;;;;5073379;28;20388;-75
2022/01/23 06:01:56;;;;;;;30.43;13.07;;;89.80;2176.00;;;;;;5073182;28;20024;-72
2022/01/23 06:04:24;;;;;;;29.83;13.80;;;89.90;2176.00;;;;;;5073236;28;20024;-74
2022/01/23 06:06:51;;;;;;;38.60;15.50;;;89.80;2176.00;;;;;;5073134;28;20036;-72
2022/01/23 06:09:20;;;;;;;37.90;16.43;;;89.80;2176.00;;;;;;5073158;28;20031;-75
2022/01/23 06:11:46;;;;;;;42.50;19.50;;;89.80;2176.00;;;;;;5073110;28;20051;-72
2022/01/23 06:14:12;;;;;;;62.07;25.70;;;89.80;2176.00;;;;;;5072871;28;20049;-69
2022/01/23 06:16:39;;;;;;;48.57;20.20;;;89.80;2176.00;;;;;;5073018;28;20090;-73
2022/01/23 06:19:05;;;;;;;67.57;24.17;;;89.70;2176.00;;;;;;5073009;28;20100;-72
2022/01/23 06:21:32;;;;;;;69.83;24.00;;;89.60;2201.60;;;;;;5072972;28;20058;-70
2022/01/23 06:24:10;;;;;;;63.77;23.97;;;89.70;2176.00;;;;;;5073017;28;20024;-71
2022/01/23 06:26:48;;;;;;;56.37;22.27;;;89.70;2176.00;;;;;;5073298;28;20025;-75
2022/01/23 06:29:18;;;;;;;61.63;25.43;;;89.70;2176.00;;;;;;5072940;28;20358;-76
2022/01/23 06:31:48;;;;;;;55.87;25.63;;;89.70;2176.00;;;;;;5072968;28;20461;-75
2022/01/23 06:34:16;;;;;;;48.33;21.80;;;89.70;2176.00;;;;;;5072925;28;20031;-75
2022/01/23 06:36:42;;;;;;;43.27;18.83;;;89.70;2176.00;;;;;;5073002;28;20079;-75
2022/01/23 06:39:10;;;;;;;35.90;15.80;;;89.70;2176.00;;;;;;5071586;28;20678;-69
2022/01/23 06:41:36;;;;;;;30.37;14.73;;;89.70;2176.00;;;;;;5072751;28;20492;-72
2022/01/23 06:44:03;;;;;;;25.87;12.07;;;89.60;2201.60;;;;;;5072863;28;20538;-76
2022/01/23 06:46:31;;;;;;;25.50;10.07;;;89.60;2201.60;;;;;;5071486;28;20032;-75
2022/01/23 06:48:57;;;;;;;21.33;10.80;;;64.90;2201.60;;;;;;5073020;28;20035;-76
2022/01/23 06:51:23;;;;;;;29.00;15.03;;;64.90;2201.60;;;;;;5073471;28;20033;-76
2022/01/23 06:53:49;;;;;;;32.80;17.47;;;64.80;2201.60;;;;;;5076259;28;20021;-76
2022/01/23 06:56:15;;;;;;;24.50;11.43;;;64.80;2201.60;;;;;;5076452;28;20040;-74
2022/01/23 06:58:41;;;;;;;117.13;53.13;;;64.70;2201.60;;;;;;5074865;28;20033;-75
2022/01/23 07:01:07;;;;;;;48.77;21.67;;;64.70;2201.60;;;;;;5076471;28;20032;-72
2022/01/23 07:03:37;;;;;;;214.20;113.30;;;64.60;2201.60;;;;;;5074797;28;20072;-72
2022/01/23 07:06:04;;;;;;;472.50;258.17;;;64.50;2201.60;;;;;;5075980;28;20078;-71
2022/01/23 07:08:30;;;;;;;627.90;371.33;;;64.40;2201.60;;;;;;5058114;28;20063;-78
2022/01/23 07:10:56;;;;;;;233.03;135.73;;;64.40;2201.60;;;;;;5076101;28;20424;-71
2022/01/23 07:13:22;;;;;;;47.23;26.33;;;64.30;2201.60;;;;;;5075920;28;20024;-76
2022/01/23 07:15:49;;;;;;;53.53;28.87;;;64.30;2201.60;;;;;;5076104;28;20028;-73
2022/01/23 07:18:18;;;;;;;55.93;27.13;;;64.20;2201.60;;;;;;5075822;28;20067;-74
2022/01/23 07:20:45;;;;;;;54.90;31.63;;;64.10;2201.60;;;;;;5076025;28;20427;-70
2022/01/23 07:23:11;;;;;;;89.10;53.67;;;64.00;2201.60;;;;;;5075786;28;20111;-76
2022/01/23 07:25:39;;;;;;;52.37;28.97;;;64.00;2201.60;;;;;;5075655;28;20068;-73
2022/01/23 07:28:09;;;;;;;40.03;19.27;;;39.30;2201.60;;;;;;5075670;28;20020;-72
2022/01/23 07:31:00;;;;;;;40.63;20.53;;;39.30;2201.60;;;;;;5075213;28;20032;-76
2022/01/23 07:33:21;;;;;;;38.33;22.27;;;39.30;2201.60;;;;;;5074100;28;20081;-71
2022/01/23 07:35:48;;;;;;;39.70;18.17;;;39.30;2201.60;;;;;;5075802;28;20108;-72
2022/01/23 07:38:17;;;;;;;72.87;36.27;;;39.20;2201.60;;;;;;5075436;28;20032;-76
2022/01/23 07:40:48;;;;;;;45.23;23.20;;;39.10;2201.60;;;;;;5075365;28;20028;-74
2022/01/23 07:43:14;;;;;;;70.17;37.70;;;39.10;2201.60;;;;;;5075767;28;20021;-69
2022/01/23 07:45:41;;;;;;;58.77;29.40;;;39.00;2201.60;;;;;;5075223;28;20029;-74
2022/01/23 07:48:07;;;;;;;54.53;31.03;;;39.00;2201.60;;;;;;5075350;28;20461;-77
2022/01/23 07:50:34;;;;;;;46.87;23.93;;;38.90;2201.60;;;;;;5075327;28;20127;-77
2022/01/23 07:53:00;;;;;;;33.30;20.20;;;38.90;2201.60;;;;;;5075233;28;20097;-77
2022/01/23 07:55:25;;;;;;;29.70;15.60;;;38.80;2201.60;;;;;;5075115;28;20067;-70
2022/01/23 07:57:53;;;;;;;25.43;14.43;;;38.80;2201.60;;;;;;5075216;28;20040;-74
2022/01/23 08:00:19;;;;;;;26.33;12.77;;;38.80;2201.60;;;;;;5075061;28;20411;-72
2022/01/23 08:02:46;;;;;;;38.67;17.70;;;38.70;2201.60;;;;;;5074517;28;20439;-72
2022/01/23 08:05:12;;;;;;;33.90;18.07;;;38.60;2201.60;;;;;;5074924;28;20056;-70
2022/01/23 08:07:38;;;;;;;30.13;17.87;;;38.50;2201.60;;;;;;5074887;28;20063;-76
2022/01/23 08:10:07;;;;;;;28.20;14.53;;;38.40;2201.60;;;;;;5075077;28;20025;-72
2022/01/23 08:12:33;;;;;;;31.87;17.83;;;38.40;2201.60;;;;;;5075259;28;20024;-69
2022/01/23 08:15:01;;;;;;;22.47;11.80;;;13.70;2201.60;;;;;;5074572;28;20431;-78
2022/01/23 08:17:27;;;;;;;34.00;16.17;;;13.70;2201.60;;;;;;5074574;28;20035;-72
2022/01/23 08:19:58;;;;;;;35.17;17.17;;;13.60;2201.60;;;;;;5074618;28;20021;-76
2022/01/23 08:22:24;;;;;;;32.97;16.93;;;13.50;2201.60;;;;;;5074568;28;20028;-74
2022/01/23 08:24:52;;;;;;;34.50;16.13;;;13.50;2201.60;;;;;;5074508;28;20044;-71
2022/01/23 08:27:19;;;;;;;23.67;10.60;;;13.30;2201.60;;;;;;5073154;28;20115;-69
2022/01/23 08:29:45;;;;;;;40.60;18.53;;;13.30;2201.60;;;;;;5074374;28;20048;-77
2022/01/23 08:32:14;;;;;;;27.50;11.87;;;13.20;2201.60;;;;;;5074423;28;20036;-70
2022/01/23 08:34:40;;;;;;;30.37;12.60;;;13.00;2201.60;;;;;;5074354;28;20054;-72
2022/01/23 08:37:08;;;;;;;41.53;17.10;;;12.90;2201.60;;;;;;5074185;28;20033;-74
2022/01/23 08:39:36;;;;;;;48.13;21.80;;;12.90;2201.60;;;;;;5074223;28;20012;-70
2022/01/23 08:42:15;;;;;;;77.07;30.13;;;0.10;2201.60;;;;;;5074151;28;20154;-68
2022/01/23 08:44:42;;;;;;;52.53;17.50;;;0.40;2201.60;;;;;;5074467;28;20029;-69
2022/01/23 08:47:11;;;;;;;45.00;17.57;;;0.50;2201.60;;;;;;5074090;28;20024;-72
2022/01/23 08:49:44;;;;;;;65.90;20.87;;;0.60;2201.60;;;;;;5073983;28;20021;-76
2022/01/23 08:52:11;;;;;;;51.80;17.40;;;0.80;2201.60;;;;;;5074051;28;20074;-69
2022/01/23 08:54:37;;;;;;;46.17;18.37;;;0.80;2201.60;;;;;;5072654;28;20024;-69
2022/01/23 08:57:03;;;;;;;57.70;22.77;;;;;;;;;;5073855;28;20060;-70
2022/01/23 08:59:29;;;;;;;186.43;68.53;;;25.60;2201.60;;;;;;5073851;28;20027;-71
2022/01/23 09:01:55;;;;;;;135.83;51.10;;;25.80;2201.60;;;;;;5073800;28;20100;-72
2022/01/23 09:04:21;;;;;;;28.13;17.03;;;26.10;2201.60;;;;;;5073720;28;20431;-71
2022/01/23 09:06:47;;;;;;;24.60;13.37;;;26.30;2124.80;;;;;;5073793;28;20500;-72
2022/01/23 09:09:18;;;;;;;25.73;12.37;;;26.30;2150.40;;;;;;5073709;28;20103;-75
2022/01/23 09:13:03;;;;;;;24.77;13.57;;;26.40;2124.80;;;;;;5072528;28;20416;-69
2022/01/23 09:14:41;;;;;;;26.97;10.57;;;51.20;2150.40;;;;;;5063455;28;20058;-72
2022/01/23 09:17:07;;;;;;;42.03;15.10;;;51.40;2124.80;;;;;;5073562;28;20401;-72
2022/01/23 09:19:33;;;;;;;48.13;20.23;;;51.40;2124.80;;;;;;5074000;28;20024;-69
2022/01/23 09:22:00;;;;;;;19.73;11.53;;;51.40;2124.80;;;;;;5074257;28;20028;-68
2022/01/23 09:24:27;;;;;;;14.03;7.60;;;51.70;2099.20;;;;;;5074327;28;20159;-68
2022/01/23 09:27:01;;;;;;;38.63;19.67;;;77.10;1996.80;;;;;;5073552;28;20317;-70
2022/01/23 09:29:32;;;;;;;75.53;51.40;;;102.80;1843.20;;;;;;5073489;28;20052;-69
2022/01/23 09:31:59;;;;;;;30.40;25.77;;;103.20;1792.00;;;;;;5073533;28;20020;-76
2022/01/23 09:34:28;;;;;;;43.10;37.97;;;128.90;1715.20;;;;;;5073478;28;20029;-77
2022/01/23 09:36:56;;;;;;;27.47;16.47;;;179.30;1561.60;;;;;;5073378;28;20035;-71
2022/01/23 09:39:23;;;;;;;101.50;72.47;;;204.90;1510.40;;;;;;5072117;28;20074;-74
2022/01/23 09:41:55;;;;;;;45.70;33.67;;;205.70;1408.00;;;;;;5073638;28;20056;-70
2022/01/23 09:44:21;;;;;;;41.27;32.80;;;256.30;1228.80;;;;;;5073668;28;20459;-70
2022/01/23 09:46:48;;;;;;;33.83;17.17;;;282.50;1177.60;;;;;;5073396;28;20104;-69
2022/01/23 09:49:16;;;;;;;68.87;24.27;;;282.50;1152.00;;;;;;5073681;28;20024;-69
2022/01/23 09:51:43;;;;;;;29.73;15.67;;;307.40;1152.00;;;;;;5073254;28;20097;-69
2022/01/23 09:54:17;;;;;;;25.00;14.60;;;332.80;1126.40;;;;;;5073285;28;20025;-75
2022/01/23 09:56:43;;;;;;;;;;;358.70;1049.60;;;;;;5073638;28;20044;-77
2022/01/23 09:59:11;;;;;;;33.17;16.08;;;359.10;972.80;;;;;;5073191;28;19904;-69
2022/01/23 10:01:40;;;;;;;15.75;9.35;;;409.60;947.20;;;;;;5073187;28;20024;-71
2022/01/23 10:04:06;;;;;;;18.30;10.70;;;435.40;870.40;;;;;;5073165;28;20021;-70
2022/01/23 10:06:32;;;;;;;31.05;19.40;;;435.30;844.80;;;;;;5071878;28;20139;-69
2022/01/23 10:08:59;;;;;;;13.00;9.05;;;410.30;896.00;;;;;;5073177;28;20066;-69
2022/01/23 10:11:29;;;;;;;45.03;25.85;;;359.00;972.80;;;;;;5073050;28;20021;-70
2022/01/23 10:13:55;;;;;;;71.68;37.53;;;384.80;921.60;;;;;;5072830;28;20052;-70
2022/01/23 10:16:22;;;;;;;15.73;8.60;;;461.40;844.80;;;;;;5073051;28;20119;-70
2022/01/23 10:18:48;;;;;;;29.38;16.52;;;537.90;716.80;;;;;;5073024;28;20016;-73
2022/01/23 10:21:15;;;;;;;43.35;22.30;;;588.90;716.80;;;;;;5073454;28;20021;-70
2022/01/23 10:23:41;;;;;;;98.32;43.47;;;614.90;665.60;;;;;;5072991;28;20021;-74
2022/01/23 10:26:07;;;;;;;40.38;19.85;;;614.40;614.40;;;;;;5074850;28;20481;-71
2022/01/23 10:28:35;;;;;;;18.13;10.38;;;564.10;691.20;;;;;;5076757;28;20025;-73
2022/01/23 10:31:04;;;;;;;11.23;7.38;;;588.80;665.60;;;;;;5076825;28;20020;-70
2022/01/23 10:33:37;;;;;;;13.45;8.05;;;538.40;665.60;;;;;;5075370;28;20452;-70
2022/01/23 10:36:12;;;;;;;39.65;20.08;;;538.20;691.20;;;;;;5076569;28;20080;-75
2022/01/23 10:38:47;;;;;;;14.05;8.85;;;512.20;665.60;;;;;;5076515;28;20028;-69
2022/01/23 10:49:58;;;;;;;13.85;7.82;;;435.50;793.60;;;;;;5076154;28;20120;-72
2022/01/23 10:52:33;;;;;;;13.45;7.78;;;409.80;844.80;;;;;;5076084;28;20025;-73
2022/01/23 10:55:12;;;;;;;22.38;16.13;;;435.70;768.00;;;;;;5076061;28;20065;-70
2022/01/23 10:57:43;;;;;;;23.02;11.68;;;487.20;716.80;;;;;;5076019;28;20044;-70
2022/01/23 11:00:23;;;;;;;12.27;7.78;;;435.60;793.60;;;;;;5076097;28;20051;-70
2022/01/23 11:02:49;;;;;;;13.50;8.80;;;460.80;793.60;;;;;;5075919;28;20108;-71
2022/01/23 11:05:19;;;;;;;16.75;10.15;;;461.00;742.40;;;;;;5075724;28;20354;-74
2022/01/23 11:07:46;;;;;;;30.60;13.57;;;436.00;768.00;;;;;;5075718;28;20017;-76
2022/01/23 11:10:19;;;;;;;20.50;10.68;;;461.50;768.00;;;;;;5075760;28;20021;-70
2022/01/23 11:18:14;;;;;;;13.98;9.15;;;333.60;972.80;;;;;;5076096;28;20094;-69
2022/01/23 11:20:48;;;;;;;16.30;10.10;;;307.70;1024.00;;;;;;5075027;28;20074;-72
2022/01/23 11:23:27;;;;;;;12.48;7.38;;;282.50;1075.20;;;;;;5073156;28;20024;-69
2022/01/23 11:25:55;;;;;;;14.30;8.15;;;256.80;1075.20;;;;;;5074427;28;20055;-71
2022/01/23 11:28:39;;;;;;;13.38;7.95;;;256.50;1100.80;;;;;;5075312;28;20038;-73
2022/01/23 11:31:09;;;;;;;15.77;8.80;;;231.30;1126.40;;;;;;5074266;28;20009;-69
2022/01/23 11:33:35;;;;;;;11.20;5.78;;;231.00;1177.60;;;;;;5072714;28;20489;-78
2022/01/23 11:36:02;;;;;;;16.60;9.30;;;205.30;1254.40;;;;;;5074641;28;20107;-78
2022/01/23 11:38:29;;;;;;;22.83;13.73;;;205.10;1305.60;;;;;;5073174;28;20472;-69
2022/01/23 11:54:49;;;;;;;11.88;6.05;;;154.40;1433.60;;;;;;5071782;28;20051;-69
2022/01/23 11:57:36;;;;;;;12.52;7.55;;;154.30;1459.20;;;;;;5072231;28;20037;-76
2022/01/23 12:00:23;;;;;;;19.90;10.27;;;154.10;1484.80;;;;;;5073611;28;20054;-69
2022/01/23 12:03:12;;;;;;;17.20;8.88;;;154.20;1484.80;;;;;;5073545;28;20051;-72
2022/01/23 12:05:43;;;;;;;17.60;9.18;;;153.80;1484.80;;;;;;5073069;28;20033;-72
2022/01/23 12:08:29;;;;;;;32.30;15.02;;;153.80;1484.80;;;;;;5073460;28;20506;-75
2022/01/23 12:11:54;;;;;;;26.08;13.98;;;154.40;1484.80;;;;;;5072340;28;20099;-92
2022/01/23 12:16:59;;;;;;;27.80;13.77;;;230.70;1254.40;;;;;;5071788;28;20036;-71
2022/01/23 12:19:29;;;;;;;30.00;14.88;;;230.40;1254.40;;;;;;5071037;28;20013;-72
2022/01/23 12:21:58;;;;;;;32.15;16.13;;;205.40;1254.40;;;;;;5073371;28;20013;-70
2022/01/23 12:24:25;;;;;;;21.50;10.85;;;231.30;1203.20;;;;;;5073467;28;20023;-70
2022/01/23 12:27:12;;;;;;;31.25;15.93;;;307.50;1049.60;;;;;;5073256;28;20111;-70
2022/01/23 12:29:39;;;;;;;21.48;9.73;;;308.00;1024.00;;;;;;5073566;28;20147;-74
2022/01/23 12:32:18;;;;;;;16.13;8.48;;;256.40;1100.80;;;;;;5083080;28;20089;-67
2022/01/23 12:34:51;;;;;;;22.65;12.02;;;230.90;1177.60;;;;;;5081075;28;20009;-69
2022/01/23 12:37:17;;;;;;;12.48;6.65;;;230.50;1228.80;;;;;;5082950;28;20054;-68
2022/01/23 12:39:43;;;;;;;11.93;7.18;;;256.10;1177.60;;;;;;5076521;28;20532;-69
2022/01/23 12:42:10;;;;;;;17.27;8.90;;;333.40;998.40;;;;;;5074211;28;20023;-68
2022/01/23 12:44:38;;;;;;;76.65;34.33;;;358.40;998.40;;;;;;5073995;28;20025;-69
2022/01/23 12:47:18;;;;;;;43.97;17.02;;;307.60;1049.60;;;;;;5073918;28;20016;-69
2022/01/23 12:49:50;;;;;;;60.28;27.60;;;282.20;1049.60;;;;;;5073904;28;20050;-68
2022/01/23 12:52:20;;;;;;;61.60;25.98;;;384.10;947.20;;;;;;5074013;28;20031;-69
2022/01/23 12:54:59;;;;;;;58.20;21.77;;;563.20;716.80;;;;;;5073293;28;20041;-70
2022/01/23 12:57:41;;;;;;;73.35;27.38;;;640.00;563.20;;;;;;5073806;28;20032;-69
2022/01/23 13:00:19;;;;;;;36.30;15.18;;;691.70;537.60;;;;;;5073919;28;20021;-69
2022/01/23 13:02:49;;;;;;;61.28;26.00;;;;;;;;;;5073171;28;20032;-69
2022/01/23 13:05:16;;;;;;;35.35;16.00;;;743.00;512.00;;;;;;5073143;28;20056;-68
2022/01/23 13:13:05;;;;;;;50.58;24.05;;;537.70;716.80;;;;;;5073594;28;20021;-68
2022/01/23 13:27:22;;;;;;;;;;;589.70;640.00;;;;;;5057593;28;20128;-69
2022/01/23 13:35:07;;;;;;;161.23;70.82;;;793.60;793.60;;;;;;5072339;28;20123;-77
2022/01/23 13:37:36;;;;;;;152.15;69.70;;;819.40;460.80;;;;;;5069818;28;20491;-72
2022/01/23 13:40:25;;;;;;;623.25;312.08;;;844.80;460.80;;;;;;5071925;28;20051;-73
2022/01/23 13:59:19;;;;;;;31.33;22.15;;;896.00;384.00;;;;;;5070991;28;20071;-79
2022/01/23 14:04:37;;;;;;;141.93;85.80;;;896.10;358.40;;;;;;5077403;28;20024;-71
2022/01/23 14:07:03;;;;;;;28.55;18.75;;;896.00;384.00;;;;;;5076821;28;20028;-72
2022/01/23 14:09:36;;;;;;;80.00;49.60;;;871.20;358.40;;;;;;5076131;28;20021;-71
2022/01/23 14:12:07;;;;;;;42.97;28.00;;;870.60;384.00;;;;;;5077068;28;20469;-71
2022/01/23 14:14:33;;;;;;;36.25;21.20;;;845.60;409.60;;;;;;5073887;28;20040;-74
2022/01/23 14:17:12;;;;;;;86.20;51.28;;;844.80;460.80;;;;;;5075496;28;20031;-71
2022/01/23 14:19:38;;;;;;;82.57;51.25;;;844.80;460.80;;;;;;5076819;28;20115;-72
2022/01/23 14:22:04;;;;;;;53.42;34.47;;;819.90;409.60;;;;;;5076780;28;20099;-76
2022/01/23 14:24:37;;;;;;;69.25;41.22;;;819.70;409.60;;;;;;5076067;28;20017;-77
2022/01/23 14:27:08;;;;;;;;;;;794.10;435.20;;;;;;5075724;28;20552;-76
2022/01/23 14:29:51;;;;;;;70.45;38.55;;;615.30;537.60;;;;;;5072613;28;19908;-78
2022/01/23 14:32:36;;;;;;;34.83;24.52;;;487.00;691.20;;;;;;5072807;28;20477;-77
2022/01/23 14:35:11;;;;;;;30.20;18.35;;;410.10;793.60;;;;;;5055536;28;20029;-90
2022/01/23 14:37:39;;;;;;;95.03;37.95;;;358.80;921.60;;;;;;5056477;28;20043;-77
2022/01/23 14:40:13;;;;;;;141.32;68.13;;;333.00;972.80;;;;;;5056443;28;20029;-70
2022/01/23 14:42:40;;;;;;;40.47;20.20;;;307.20;1024.00;;;;;;5056175;28;20028;-73
2022/01/23 14:45:07;;;;;;;40.75;21.38;;;256.80;1049.60;;;;;;5056308;28;20112;-77
2022/01/23 14:47:39;;;;;;;32.00;18.45;;;256.00;1100.80;;;;;;5056179;28;20033;-78
2022/01/23 14:50:10;;;;;;;34.42;18.13;;;231.00;1152.00;;;;;;5056418;28;20029;-76
2022/01/23 14:52:38;;;;;;;24.05;12.75;;;;;;;;;;5056040;28;20025;-76
2022/01/23 14:55:04;;;;;;;37.47;20.20;;;205.60;1203.20;;;;;;5055775;28;20036;-68
2022/01/23 14:57:35;;;;;;;23.67;12.35;;;;;;;;;;5063281;28;20043;-70
2022/01/23 15:00:07;;;;;;;49.85;29.85;;;204.80;1280.00;;;;;;5055756;28;20108;-71
2022/01/23 15:02:33;;;;;;;33.05;19.90;;;179.80;1331.20;;;;;;5056248;28;20553;-68
2022/01/23 15:05:02;;;;;;;42.35;22.25;;;179.50;1382.40;;;;;;5074430;28;20108;-72
2022/01/23 15:07:40;;;;;;;36.80;20.42;;;179.30;1766.40;;;;;;5074334;28;20021;-71
2022/01/23 15:10:08;;;;;;;28.77;15.15;;;154.50;1408.00;;;;;;5073462;28;20020;-74
2022/01/23 15:12:34;;;;;;;36.40;19.95;;;154.20;1433.60;;;;;;5073139;28;20368;-73
2022/01/23 15:15:00;;;;;;;35.17;16.67;;;153.90;2252.80;;;;;;5075456;28;20051;-74
2022/01/23 15:17:26;;;;;;;53.22;27.60;;;153.70;1459.20;;;;;;5074132;28;20040;-68
2022/01/23 15:19:53;;;;;;;45.08;21.35;;;128.90;1484.80;;;;;;5074262;28;20024;-73
2022/01/23 15:22:19;;;;;;;64.40;28.77;;;128.50;1536.00;;;;;;5070989;28;20078;-74
2022/01/23 15:24:46;;;;;;;70.10;39.08;;;128.40;1561.60;;;;;;5075461;28;20019;-68
2022/01/23 15:27:13;;;;;;;106.07;55.67;;;128.20;1561.60;;;;;;5074985;28;20047;-75
2022/01/23 15:29:39;;;;;;;62.90;34.97;;;128.00;1587.20;;;;;;5074245;28;20019;-69
2022/01/23 15:32:06;;;;;;;92.45;50.90;;;;;;;;;;5075415;28;20028;-65
2022/01/23 15:34:35;;;;;;;106.07;56.33;;;;;;;;;;5075366;28;20024;-67
2022/01/23 15:37:01;;;;;;;70.03;36.67;;;;;;;;;;5075376;28;20037;-75
2022/01/23 15:39:28;;;;;;;141.43;62.13;;;;;;;;;;5074869;28;20059;-74
2022/01/23 15:41:56;;;;;;;76.43;33.08;;;;;;;;;;5074561;28;20024;-74
2022/01/23 15:44:22;;;;;;;86.07;45.00;;;;;;;;;;5072341;28;20380;-75
2022/01/23 15:46:50;;;;;;;65.93;34.63;;;;;;;;;;5073714;28;20082;-72
2022/01/23 15:49:16;;;;;;;65.70;32.60;;;;;;;;;;5073688;28;20024;-77
2022/01/23 15:51:47;;;;;;;163.23;59.22;;;;;;;;;;5073955;28;20037;-73
2022/01/23 15:54:14;;;;;;;196.10;85.75;;;102.50;1689.60;;;;;;5074703;28;20376;-68
2022/01/23 15:56:40;;;;;;;226.18;100.95;;;;;;;;;;5074929;28;20435;-74
2022/01/23 15:59:07;;;;;;;62.88;33.33;;;;;;;;;;5074663;28;20039;-74
2022/01/23 16:01:34;;;;;;;70.80;37.55;;;;;;;;;;5073450;28;20026;-66
2022/01/23 16:04:01;;;;;;;59.17;29.48;;;;;;;;;;5074254;28;20351;-76
2022/01/23 16:06:30;;;;;;;75.45;40.28;;;;;;;;;;5075053;28;20063;-70